createdAt,value
2018-03-01T15:51:33.160Z,13.40
2018-03-01T15:52:33.829Z,21.50
2018-03-01T15:54:34.749Z,21.80
2018-03-01T15:55:35.400Z,22.00
2018-03-01T15:57:36.355Z,21.70
2018-03-01T15:58:37.043Z,21.80
2018-03-01T15:59:37.682Z,21.40
2018-03-01T16:00:38.315Z,21.60
2018-03-01T16:01:38.967Z,21.30
2018-03-01T16:02:39.652Z,22.30
2018-03-01T16:03:40.285Z,22.40
2018-03-01T16:04:40.959Z,21.70
2018-03-01T16:05:41.600Z,21.40
2018-03-01T16:06:42.252Z,20.10
2018-03-01T16:07:42.911Z,22.10
2018-03-01T16:09:43.811Z,22.10
2018-03-01T16:10:45.107Z,20.80
2018-03-01T16:12:46.035Z,20.80
2018-03-01T16:13:46.674Z,21.10
2018-03-01T16:15:47.587Z,21.70
2018-03-01T16:16:48.210Z,21.50
2018-03-01T16:17:49.095Z,21.60
2018-03-01T16:18:49.780Z,22.50
2018-03-01T16:19:50.415Z,22.40
2018-03-01T16:20:51.048Z,21.50
2018-03-01T16:21:51.790Z,21.70
2018-03-01T16:22:52.446Z,21.10
2018-03-01T16:23:53.105Z,21.00
2018-03-01T16:24:53.765Z,20.80
2018-03-01T16:25:54.395Z,21.50
2018-03-01T16:26:55.125Z,21.20
2018-03-01T16:27:55.781Z,21.20
2018-03-01T16:28:56.436Z,21.80
2018-03-01T16:29:57.113Z,21.00
2018-03-01T16:30:57.751Z,21.60
2018-03-01T16:31:58.386Z,21.40
2018-03-01T16:32:59.065Z,21.10
2018-03-01T16:33:59.709Z,20.20
2018-03-01T16:35:00.339Z,21.50
2018-03-01T16:36:00.975Z,21.90
2018-03-01T16:37:01.596Z,20.90
2018-03-01T16:38:02.279Z,21.70
2018-03-01T16:39:02.927Z,21.50
2018-03-01T16:40:03.554Z,21.10
2018-03-01T16:41:04.184Z,21.00
2018-03-01T16:42:04.859Z,21.30
2018-03-01T16:43:05.484Z,21.00
2018-03-01T16:44:06.122Z,21.20
2018-03-01T16:45:06.777Z,21.00
2018-03-01T16:46:07.417Z,21.20
2018-03-01T16:47:08.070Z,21.10
2018-03-01T16:48:09.512Z,20.90
2018-03-01T16:49:10.154Z,20.20
2018-03-01T16:50:10.800Z,21.60
2018-03-01T16:51:11.453Z,20.80
2018-03-01T16:52:12.141Z,20.70
2018-03-01T16:53:12.771Z,20.00
2018-03-01T16:54:13.411Z,20.50
2018-03-01T16:55:14.070Z,20.90
2018-03-01T16:56:14.694Z,21.00
2018-03-01T16:57:15.638Z,21.50
2018-03-01T16:58:16.284Z,20.40
2018-03-01T16:59:16.913Z,19.80
2018-03-01T17:00:18.062Z,20.90
2018-03-01T17:01:18.700Z,21.10
2018-03-01T17:02:19.334Z,20.40
2018-03-01T17:03:20.009Z,21.00
2018-03-01T17:04:20.648Z,20.70
2018-03-01T17:05:21.277Z,21.20
2018-03-01T17:06:21.925Z,20.80
2018-03-01T17:07:22.566Z,21.70
2018-03-01T17:08:24.190Z,20.60
2018-03-01T17:09:24.939Z,20.80
2018-03-01T17:10:25.572Z,21.30
2018-03-01T17:11:26.211Z,20.70
2018-03-01T17:12:26.872Z,20.30
2018-03-01T17:13:27.506Z,20.40
2018-03-01T17:14:28.154Z,21.00
2018-03-01T17:15:28.798Z,21.50
2018-03-01T17:16:29.449Z,22.40
2018-03-01T17:17:30.093Z,23.50
2018-03-01T17:18:30.751Z,21.40
2018-03-01T17:19:31.375Z,22.30
2018-03-01T17:20:32.093Z,23.30
2018-03-01T17:21:32.800Z,25.80
2018-03-01T17:22:33.444Z,24.80
2018-03-01T17:23:34.086Z,22.90
2018-03-01T17:24:34.728Z,26.70
2018-03-01T17:25:35.360Z,26.30
2018-03-01T17:26:36.037Z,26.30
2018-03-01T17:27:36.688Z,26.00
2018-03-01T17:28:37.329Z,27.20
2018-03-01T17:29:37.950Z,29.90
2018-03-01T17:30:38.600Z,26.60
2018-03-01T17:31:39.243Z,23.40
2018-03-01T17:32:39.875Z,23.40
2018-03-01T17:33:40.840Z,22.20
2018-03-01T17:34:41.501Z,22.10
2018-03-01T17:35:42.131Z,21.00
2018-03-01T17:36:42.775Z,23.70
2018-03-01T17:37:43.469Z,22.90
2018-03-01T17:38:44.099Z,21.40
2018-03-01T17:39:44.742Z,21.40
2018-03-01T17:40:45.363Z,20.50
2018-03-01T17:41:45.982Z,21.90
2018-03-01T17:42:46.642Z,21.50
2018-03-01T17:43:47.276Z,21.70
2018-03-01T17:44:47.910Z,21.40
2018-03-01T17:45:48.531Z,21.20
2018-03-01T17:46:49.490Z,21.30
2018-03-01T17:47:50.187Z,21.80
2018-03-01T17:48:50.965Z,22.30
2018-03-01T17:49:51.596Z,21.90
2018-03-01T17:50:52.304Z,22.50
2018-03-01T17:51:52.949Z,22.30
2018-03-01T17:52:53.651Z,21.70
2018-03-01T17:53:54.287Z,21.70
2018-03-01T17:54:54.919Z,21.90
2018-03-01T17:55:56.326Z,21.90
2018-03-01T17:56:56.960Z,21.70
2018-03-01T17:57:57.622Z,22.30
2018-03-01T17:58:58.279Z,22.40
2018-03-01T17:59:58.931Z,21.10
2018-03-01T18:00:59.558Z,21.60
2018-03-01T18:02:00.197Z,21.90
2018-03-01T18:03:00.855Z,21.40
2018-03-01T18:04:03.839Z,22.30
2018-03-01T18:05:04.486Z,22.80
2018-03-01T18:06:05.116Z,22.30
2018-03-01T18:07:05.757Z,22.10
2018-03-01T18:08:06.409Z,22.40
2018-03-01T18:09:07.070Z,22.30
2018-03-01T18:10:07.753Z,22.30
2018-03-01T18:11:08.391Z,22.30
2018-03-01T18:12:09.014Z,22.30
2018-03-01T18:13:09.686Z,21.60
2018-03-01T18:14:10.311Z,22.70
2018-03-01T18:15:10.973Z,23.30
2018-03-01T18:16:12.172Z,22.20
2018-03-01T18:17:12.799Z,21.80
2018-03-01T18:18:13.464Z,22.50
2018-03-01T18:19:14.114Z,21.80
2018-03-01T18:20:14.746Z,21.00
2018-03-01T18:21:15.380Z,23.20
2018-03-01T18:22:16.170Z,22.00
2018-03-01T18:23:16.851Z,21.40
2018-03-01T18:24:17.544Z,22.40
2018-03-01T18:25:18.645Z,22.60
2018-03-01T18:26:19.728Z,22.00
2018-03-01T18:27:20.408Z,21.30
2018-03-01T18:28:21.043Z,21.40
2018-03-01T18:29:21.670Z,21.80
2018-03-01T18:30:22.271Z,22.40
2018-03-01T18:31:22.899Z,22.70
2018-03-01T18:32:23.597Z,21.50
2018-03-01T18:33:24.214Z,23.20
2018-03-01T18:34:24.869Z,21.10
2018-03-01T18:35:26.124Z,21.40
2018-03-01T18:36:27.367Z,22.10
2018-03-01T18:37:27.990Z,21.80
2018-03-01T18:38:28.632Z,21.80
2018-03-01T18:39:29.253Z,22.30
2018-03-01T18:40:29.874Z,20.90
2018-03-01T18:41:30.492Z,22.10
2018-03-01T18:42:31.178Z,22.90
2018-03-01T18:43:31.829Z,22.50
2018-03-01T18:44:32.447Z,23.00
2018-03-01T18:45:33.056Z,23.50
2018-03-01T18:46:33.827Z,23.90
2018-03-01T18:47:34.438Z,22.90
2018-03-01T18:48:35.060Z,22.90
2018-03-01T18:49:35.682Z,23.20
2018-03-01T18:50:36.715Z,23.30
2018-03-01T18:51:37.324Z,21.30
2018-03-01T18:52:38.922Z,22.40
2018-03-01T18:53:39.547Z,22.60
2018-03-01T18:54:40.185Z,23.40
2018-03-01T18:55:40.787Z,23.90
2018-03-01T18:56:41.385Z,23.40
2018-03-01T18:57:41.996Z,24.00
2018-03-01T18:58:42.635Z,22.70
2018-03-01T18:59:43.269Z,23.40
2018-03-01T19:00:43.871Z,22.20
2018-03-01T19:01:45.344Z,23.20
2018-03-01T19:02:45.951Z,22.80
2018-03-01T19:03:46.566Z,22.60
2018-03-01T19:04:47.163Z,22.50
2018-03-01T19:05:47.770Z,23.60
2018-03-01T19:06:48.428Z,24.30
2018-03-01T19:07:49.051Z,24.10
2018-03-01T19:08:49.728Z,22.50
2018-03-01T19:09:50.737Z,23.90
2018-03-01T19:10:51.930Z,23.50
2018-03-01T19:11:52.531Z,24.00
2018-03-01T19:12:53.161Z,24.30
2018-03-01T19:13:53.835Z,23.80
2018-03-01T19:14:54.456Z,23.10
2018-03-01T19:15:55.068Z,22.80
2018-03-01T19:16:55.693Z,23.80
2018-03-01T19:17:56.299Z,24.00
2018-03-01T19:18:56.976Z,24.00
2018-03-01T19:19:58.620Z,24.90
2018-03-01T19:20:59.230Z,23.80
2018-03-01T19:21:59.829Z,24.50
2018-03-01T19:23:00.451Z,24.70
2018-03-01T19:24:01.106Z,23.50
2018-03-01T19:25:02.338Z,22.70
2018-03-01T19:26:02.990Z,22.90
2018-03-01T19:27:03.596Z,22.90
2018-03-01T19:28:04.203Z,23.20
2018-03-01T19:29:04.844Z,23.30
2018-03-01T19:30:05.494Z,23.00
2018-03-01T19:31:06.352Z,24.30
2018-03-01T19:32:07.020Z,22.90
2018-03-01T19:33:07.661Z,23.30
2018-03-01T19:34:08.299Z,23.40
2018-03-01T19:35:08.916Z,23.80
2018-03-01T19:36:09.572Z,23.00
2018-03-01T19:37:10.198Z,22.60
2018-03-01T19:38:10.814Z,24.20
2018-03-01T19:39:11.449Z,24.10
2018-03-01T19:40:12.054Z,23.50
2018-03-01T19:41:12.685Z,23.40
2018-03-01T19:42:13.606Z,24.30
2018-03-01T19:43:14.221Z,23.70
2018-03-01T19:44:14.891Z,23.00
2018-03-01T19:45:15.495Z,23.50
2018-03-01T19:46:16.199Z,23.90
2018-03-01T19:47:16.822Z,24.10
2018-03-01T19:48:17.478Z,25.50
2018-03-01T19:49:18.141Z,25.30
2018-03-01T19:50:18.848Z,25.90
2018-03-01T19:51:19.461Z,24.50
2018-03-01T19:52:20.058Z,23.60
2018-03-01T19:53:20.678Z,23.20
2018-03-01T19:54:21.341Z,24.40
2018-03-01T19:55:22.047Z,23.30
2018-03-01T19:56:22.665Z,23.10
2018-03-01T19:57:23.269Z,23.10
2018-03-01T19:58:23.893Z,23.50
2018-03-01T19:59:24.529Z,23.80
2018-03-01T20:00:25.131Z,23.00
2018-03-01T20:01:25.732Z,23.00
2018-03-01T20:02:26.343Z,24.00
2018-03-01T20:03:26.958Z,24.70
2018-03-01T20:04:27.595Z,23.20
2018-03-01T20:05:28.211Z,23.90
2018-03-01T20:06:28.828Z,23.50
2018-03-01T20:07:29.428Z,22.90
2018-03-01T20:08:30.047Z,22.40
2018-03-01T20:09:30.708Z,23.90
2018-03-01T20:10:31.325Z,24.70
2018-03-01T20:11:32.862Z,22.60
2018-03-01T20:12:33.463Z,23.10
2018-03-01T20:13:34.069Z,22.10
2018-03-01T20:14:34.726Z,23.70
2018-03-01T20:15:35.424Z,23.50
2018-03-01T20:16:36.033Z,24.00
2018-03-01T20:17:36.680Z,23.50
2018-03-01T20:18:37.295Z,23.50
2018-03-01T20:19:37.929Z,23.20
2018-03-01T20:20:39.394Z,23.80
2018-03-01T20:21:40.007Z,23.70
2018-03-01T20:22:40.622Z,24.10
2018-03-01T20:23:41.255Z,25.30
2018-03-01T20:24:41.874Z,25.20
2018-03-01T20:25:43.248Z,22.80
2018-03-01T20:26:43.854Z,23.70
2018-03-01T20:27:44.450Z,23.80
2018-03-01T20:28:45.123Z,23.60
2018-03-01T20:29:45.752Z,23.60
2018-03-01T20:30:46.365Z,24.40
2018-03-01T20:31:47.078Z,25.00
2018-03-01T20:32:47.687Z,24.50
2018-03-01T20:33:48.289Z,24.30
2018-03-01T20:34:48.982Z,24.60
2018-03-01T20:35:49.847Z,24.90
2018-03-01T20:36:50.452Z,24.00
2018-03-01T20:37:51.059Z,25.30
2018-03-01T20:38:51.658Z,24.20
2018-03-01T20:39:52.265Z,24.30
